Time;durP1;ratioP1;P1;durP2;ratioP2;P2;SDS_P1;SDS_P2;PMS_P1;PMS_P2;Temp;Humidity;BMP_temperature;BMP_pressure;BME280_temperature;BME280_humidity;BME280_pressure;Samples;Min_cycle;Max_cycle;Signal;HPM_P1;HPM_P2
2023/10/22 00:00:55;;;;;;;0.20;0.20;;;;;;;11.57;100.00;99530.81;5095036;28;20353;-59
2023/10/22 00:03:20;;;;;;;0.20;0.20;;;;;;;11.55;100.00;99541.13;5093708;28;20028;-58
2023/10/22 00:05:46;;;;;;;0.20;0.20;;;;;;;11.57;100.00;99533.41;5095024;28;20028;-59
2023/10/22 00:08:11;;;;;;;0.20;0.20;;;;;;;11.59;100.00;99542.03;5094470;28;20428;-59
2023/10/22 00:10:36;;;;;;;0.20;0.20;;;;;;;11.57;100.00;99538.56;5093925;28;20051;-58
2023/10/22 00:13:02;;;;;;;0.10;0.10;;;;;;;11.58;100.00;99548.03;5094608;28;20519;-59
2023/10/22 00:15:27;;;;;;;0.10;0.10;;;;;;;11.60;100.00;99554.06;5094223;28;20020;-58
2023/10/22 00:17:55;;;;;;;0.20;0.20;;;;;;;11.62;100.00;99548.06;5093940;28;20036;-58
2023/10/22 00:20:20;;;;;;;;;;;;;;;11.69;100.00;99551.53;5094704;28;20050;-58
2023/10/22 00:22:46;;;;;;;0.20;0.20;;;;;;;11.68;100.00;99553.25;5094571;28;19970;-59
2023/10/22 00:25:11;;;;;;;0.20;0.20;;;;;;;11.70;100.00;99555.84;5093266;28;20429;-58
2023/10/22 00:27:36;;;;;;;0.20;0.20;;;;;;;11.73;100.00;99550.69;5094425;28;20016;-58
2023/10/22 00:30:02;;;;;;;0.20;0.20;;;;;;;11.77;100.00;99561.88;5094503;28;20027;-59
2023/10/22 00:32:28;;;;;;;0.20;0.20;;;;;;;11.83;100.00;99567.94;5093388;28;20564;-58
2023/10/22 00:34:54;;;;;;;0.20;0.20;;;;;;;11.90;100.00;99573.13;5094336;28;20031;-59
2023/10/22 00:37:19;;;;;;;0.20;0.20;;;;;;;11.90;100.00;99584.28;5093794;28;20020;-58
2023/10/22 00:39:44;;;;;;;0.10;0.10;;;;;;;11.92;100.00;99576.56;5093281;28;20040;-59
2023/10/22 00:42:10;;;;;;;0.20;0.20;;;;;;;11.95;100.00;99581.75;5092758;28;20032;-59
2023/10/22 00:44:36;;;;;;;0.20;0.20;;;;;;;11.97;100.00;99583.50;5094302;28;20028;-59
2023/10/22 00:47:05;;;;;;;0.20;0.20;;;;;;;12.01;100.00;99587.81;5093434;28;20061;-59
2023/10/22 00:49:31;;;;;;;0.20;0.20;;;;;;;12.03;100.00;99582.66;5093672;28;20356;-59
2023/10/22 00:51:56;;;;;;;0.20;0.20;;;;;;;12.04;100.00;99580.94;5093866;28;20031;-58
2023/10/22 00:54:22;;;;;;;0.20;0.20;;;;;;;12.05;100.00;99591.28;5092817;28;20016;-59
2023/10/22 00:56:50;;;;;;;0.20;0.20;;;;;;;12.11;100.00;99599.06;5093685;28;20391;-58
2023/10/22 00:59:15;;;;;;;0.20;0.20;;;;;;;12.12;100.00;99599.91;5093759;28;20021;-58
2023/10/22 01:01:42;;;;;;;0.20;0.20;;;;;;;12.13;100.00;99612.81;5092821;28;20027;-58
2023/10/22 01:04:08;;;;;;;0.20;0.20;;;;;;;12.14;100.00;99599.03;5093620;28;20372;-58
2023/10/22 01:06:35;;;;;;;0.10;0.10;;;;;;;12.16;100.00;99606.78;5093259;28;20496;-58
2023/10/22 01:09:01;;;;;;;0.20;0.20;;;;;;;12.15;100.00;99620.59;5093563;28;20479;-58
2023/10/22 01:11:26;;;;;;;0.10;0.10;;;;;;;12.14;100.00;99619.72;5093239;28;20073;-58
2023/10/22 01:13:51;;;;;;;0.20;0.20;;;;;;;12.12;100.00;99611.13;5092879;28;20046;-58
2023/10/22 01:16:17;;;;;;;0.20;0.20;;;;;;;12.10;100.00;99617.13;5093202;28;20035;-58
2023/10/22 01:18:42;;;;;;;0.20;0.20;;;;;;;12.09;100.00;99624.00;5093442;28;20024;-58
2023/10/22 01:21:07;;;;;;;0.20;0.20;;;;;;;12.05;100.00;99622.25;5092527;28;20016;-59
2023/10/22 01:23:39;;;;;;;0.20;0.20;;;;;;;11.99;100.00;99629.97;5093325;28;20235;-58
2023/10/22 01:26:06;;;;;;;0.20;0.20;;;;;;;11.97;100.00;99631.72;5093377;28;20379;-58
2023/10/22 01:28:33;;;;;;;0.20;0.20;;;;;;;11.92;100.00;99643.72;5092549;28;20052;-58
2023/10/22 01:30:58;;;;;;;0.20;0.20;;;;;;;11.89;100.00;99641.09;5093433;28;20024;-58
2023/10/22 01:33:24;;;;;;;0.20;0.20;;;;;;;11.84;100.00;99652.25;5092998;28;20050;-58
2023/10/22 01:35:49;;;;;;;0.20;0.20;;;;;;;11.77;100.00;99654.81;5092479;28;20016;-59
2023/10/22 01:38:14;;;;;;;0.20;0.20;;;;;;;11.67;100.00;99648.72;5092963;28;20024;-59
2023/10/22 01:40:39;;;;;;;0.20;0.20;;;;;;;11.56;100.00;99650.41;5092758;28;20048;-60
2023/10/22 01:43:05;;;;;;;0.20;0.20;;;;;;;11.47;100.00;99667.53;5092504;28;20031;-59
2023/10/22 01:45:30;;;;;;;0.10;0.10;;;;;;;11.40;100.00;99670.94;5092915;28;20036;-59
2023/10/22 01:47:56;;;;;;;0.20;0.20;;;;;;;11.32;100.00;99665.72;5093197;28;20032;-59
2023/10/22 01:50:21;;;;;;;0.20;0.20;;;;;;;11.30;100.00;99667.41;5092009;28;20024;-59
2023/10/22 01:52:46;;;;;;;0.20;0.20;;;;;;;11.24;100.00;99667.34;5092694;28;20472;-59
2023/10/22 01:55:12;;;;;;;0.20;0.20;;;;;;;11.22;100.00;99691.41;5092628;28;20024;-59
2023/10/22 01:57:37;;;;;;;0.20;0.20;;;;;;;11.16;100.00;99687.91;5092442;28;20551;-59
2023/10/22 02:00:03;;;;;;;0.20;0.20;;;;;;;11.12;100.00;99683.59;5092959;28;20051;-59
2023/10/22 02:02:28;;;;;;;0.20;0.20;;;;;;;11.07;100.00;99698.16;5092670;28;20031;-59
2023/10/22 02:04:53;;;;;;;0.20;0.20;;;;;;;11.06;100.00;99695.56;5092377;28;20026;-59
2023/10/22 02:07:19;;;;;;;0.20;0.20;;;;;;;10.99;100.00;99702.41;5092586;28;20367;-59
2023/10/22 02:09:44;;;;;;;0.20;0.20;;;;;;;10.95;100.00;99710.91;5092810;28;20032;-60
2023/10/22 02:12:09;;;;;;;0.20;0.20;;;;;;;10.92;100.00;99713.47;5092160;28;20589;-60
2023/10/22 02:14:35;;;;;;;0.20;0.20;;;;;;;10.88;100.00;99712.59;5092777;28;20472;-59
2023/10/22 02:17:00;;;;;;;0.20;0.20;;;;;;;10.83;100.00;99709.97;5092160;28;20031;-60
2023/10/22 02:19:26;;;;;;;0.20;0.20;;;;;;;10.82;100.00;99722.81;5092494;28;20023;-60
2023/10/22 02:21:53;;;;;;;0.20;0.20;;;;;;;10.78;100.00;99727.09;5092580;28;20360;-60
2023/10/22 02:24:18;;;;;;;0.20;0.20;;;;;;;10.76;100.00;99733.94;5091594;28;20021;-60
2023/10/22 02:26:43;;;;;;;0.20;0.20;;;;;;;10.76;100.00;99733.09;5092907;28;20039;-59
2023/10/22 02:29:09;;;;;;;0.20;0.20;;;;;;;10.76;100.00;99744.25;5092669;28;20024;-59
2023/10/22 02:31:34;;;;;;;0.20;0.20;;;;;;;10.73;100.00;99741.66;5091701;28;20057;-59
2023/10/22 02:34:05;;;;;;;0.20;0.20;;;;;;;10.71;100.00;99748.50;5092779;28;20047;-59
2023/10/22 02:36:30;;;;;;;0.10;0.10;;;;;;;10.69;100.00;99751.06;5092333;28;20035;-60
2023/10/22 02:38:56;;;;;;;0.20;0.20;;;;;;;10.69;100.00;99752.75;5091984;28;20380;-59
2023/10/22 02:41:21;;;;;;;0.13;0.13;;;;;;;10.68;100.00;99758.78;5092075;28;20040;-60
2023/10/22 02:43:47;;;;;;;0.20;0.20;;;;;;;10.67;100.00;99765.63;5092676;28;20027;-59
2023/10/22 02:46:15;;;;;;;0.20;0.20;;;;;;;10.67;100.00;99769.94;5091598;28;20099;-60
2023/10/22 02:48:40;;;;;;;;;;;;;;;10.74;100.00;99778.59;5092892;28;20111;-59
2023/10/22 02:51:06;;;;;;;0.20;0.20;;;;;;;10.67;100.00;99783.66;5092673;28;19966;-59
2023/10/22 02:53:31;;;;;;;0.20;0.20;;;;;;;10.66;100.00;99783.66;5091369;28;20028;-59
2023/10/22 02:56:00;;;;;;;0.20;0.20;;;;;;;10.64;100.00;99786.22;5092315;28;20495;-59
2023/10/22 02:58:28;;;;;;;0.10;0.10;;;;;;;10.65;100.00;99792.22;5092242;28;20020;-60
2023/10/22 03:00:55;;;;;;;0.20;0.20;;;;;;;10.65;100.00;99787.06;5091515;28;20463;-59
2023/10/22 03:03:20;;;;;;;0.20;0.20;;;;;;;10.64;100.00;99801.69;5092112;28;20099;-59
2023/10/22 03:05:46;;;;;;;0.20;0.20;;;;;;;10.64;100.00;99809.41;5094517;28;20056;-60
2023/10/22 03:08:11;;;;;;;0.20;0.20;;;;;;;10.66;100.00;99814.56;5094810;28;20047;-59
2023/10/22 03:10:37;;;;;;;0.20;0.20;;;;;;;10.67;100.00;99806.84;5095802;28;20468;-59
2023/10/22 03:13:02;;;;;;;0.20;0.20;;;;;;;10.67;100.00;99806.00;5095948;28;20081;-60
2023/10/22 03:15:27;;;;;;;0.20;0.20;;;;;;;10.68;100.00;99818.03;5094821;28;20032;-59
2023/10/22 03:17:53;;;;;;;0.20;0.20;;;;;;;10.66;100.00;99812.00;5095723;28;20127;-59
2023/10/22 03:20:19;;;;;;;0.20;0.20;;;;;;;10.65;100.00;99826.59;5094689;28;20056;-59
2023/10/22 03:22:44;;;;;;;0.20;0.20;;;;;;;10.67;100.00;99829.19;5095569;28;20070;-59
2023/10/22 03:25:10;;;;;;;0.20;0.20;;;;;;;10.66;100.00;99828.31;5095295;28;20028;-59
2023/10/22 03:27:35;;;;;;;0.10;0.10;;;;;;;10.69;100.00;99845.53;5094952;28;20035;-59
2023/10/22 03:30:00;;;;;;;0.30;0.30;;;;;;;10.68;100.00;99854.97;5095602;28;20028;-59
2023/10/22 03:32:25;;;;;;;0.20;0.20;;;;;;;10.68;100.00;99861.84;5095298;28;20024;-59
2023/10/22 03:34:51;;;;;;;0.20;0.20;;;;;;;10.65;100.00;99859.22;5094723;28;20025;-59
2023/10/22 03:37:17;;;;;;;0.30;0.30;;;;;;;10.62;100.00;99872.06;5094993;28;20020;-59
2023/10/22 03:39:42;;;;;;;0.20;0.20;;;;;;;10.61;100.00;99888.38;5095397;28;20023;-58
2023/10/22 03:42:08;;;;;;;0.20;0.20;;;;;;;10.59;100.00;99883.19;5094638;28;20028;-59
2023/10/22 03:44:33;;;;;;;0.20;0.20;;;;;;;10.58;100.00;99902.06;5094985;28;20056;-59
2023/10/22 03:46:59;;;;;;;0.20;0.20;;;;;;;10.58;100.00;99914.09;5095226;28;20478;-59
2023/10/22 03:49:24;;;;;;;0.20;0.20;;;;;;;10.57;100.00;99914.94;5094273;28;20080;-59
2023/10/22 03:51:49;;;;;;;0.20;0.20;;;;;;;10.52;100.00;99912.28;5094985;28;20383;-58
2023/10/22 03:54:14;;;;;;;0.20;0.20;;;;;;;10.50;100.00;99919.16;5094915;28;20044;-59
2023/10/22 03:56:40;;;;;;;0.20;0.20;;;;;;;10.49;100.00;99925.13;5094124;28;20081;-59
2023/10/22 03:59:05;;;;;;;0.20;0.20;;;;;;;10.45;100.00;99929.38;5095104;28;20016;-58
2023/10/22 04:01:30;;;;;;;0.20;0.20;;;;;;;10.44;100.00;99944.81;5094587;28;20032;-58
2023/10/22 04:03:55;;;;;;;0.20;0.20;;;;;;;10.42;100.00;99944.78;5094181;28;20024;-58
2023/10/22 04:06:21;;;;;;;0.20;0.20;;;;;;;10.42;100.00;99949.94;5094464;28;20028;-59
2023/10/22 04:08:46;;;;;;;0.20;0.20;;;;;;;10.43;100.00;99956.84;5094990;28;20152;-59
2023/10/22 04:11:11;;;;;;;0.20;0.20;;;;;;;10.41;100.00;99955.94;5093843;28;20044;-58
2023/10/22 04:13:37;;;;;;;0.20;0.20;;;;;;;10.40;100.00;99964.50;5094844;28;20116;-58
2023/10/22 04:16:02;;;;;;;0.20;0.20;;;;;;;10.38;100.00;99964.47;5094431;28;20112;-59
2023/10/22 04:18:28;;;;;;;0.20;0.20;;;;;;;10.38;100.00;99973.91;5093582;28;20016;-58
2023/10/22 04:20:53;;;;;;;0.20;0.20;;;;;;;10.37;100.00;99977.34;5094383;28;20028;-58
2023/10/22 04:23:19;;;;;;;0.20;0.20;;;;;;;10.35;100.00;99974.75;5094048;28;20039;-58
2023/10/22 04:25:45;;;;;;;0.20;0.20;;;;;;;10.33;100.00;99980.66;5093826;28;20031;-59
2023/10/22 04:28:11;;;;;;;0.20;0.20;;;;;;;10.32;100.00;99995.25;5094288;28;20020;-58
2023/10/22 04:30:38;;;;;;;0.20;0.20;;;;;;;10.32;100.00;99996.97;5093808;28;20028;-58
2023/10/22 04:33:04;;;;;;;0.20;0.20;;;;;;;10.30;100.00;100002.09;5094440;28;20059;-59
2023/10/22 04:35:32;;;;;;;0.20;0.20;;;;;;;10.30;100.00;100006.34;5093889;28;20103;-58
2023/10/22 04:37:57;;;;;;;0.20;0.20;;;;;;;10.27;100.00;100006.31;5093630;28;20026;-58
2023/10/22 04:40:25;;;;;;;0.15;0.15;;;;;;;10.26;100.00;100012.31;5093845;28;20127;-58
2023/10/22 04:42:50;;;;;;;;;;;;;;;10.30;100.00;100012.41;5094476;28;20121;-58
2023/10/22 04:45:15;;;;;;;0.20;0.20;;;;;;;10.20;100.00;100011.34;5093079;28;20308;-58
2023/10/22 04:47:41;;;;;;;0.20;0.20;;;;;;;10.15;100.00;100018.13;5093976;28;20032;-58
2023/10/22 04:50:06;;;;;;;0.20;0.20;;;;;;;10.10;100.00;100018.91;5093957;28;20543;-58
2023/10/22 04:52:33;;;;;;;0.20;0.20;;;;;;;10.05;100.00;100026.53;5092820;28;20028;-58
2023/10/22 04:54:59;;;;;;;0.20;0.20;;;;;;;9.99;100.00;100031.56;5094108;28;20107;-58
2023/10/22 04:57:26;;;;;;;0.20;0.20;;;;;;;9.93;100.00;100037.47;5093677;28;20104;-58
2023/10/22 04:59:52;;;;;;;0.20;0.20;;;;;;;9.89;100.00;100043.41;5093170;28;20032;-58
2023/10/22 05:02:17;;;;;;;0.20;0.20;;;;;;;9.81;100.00;100045.81;5093466;28;20023;-58
2023/10/22 05:04:46;;;;;;;0.20;0.20;;;;;;;9.78;100.00;100052.59;5093547;28;20024;-58
2023/10/22 05:07:11;;;;;;;0.20;0.20;;;;;;;9.71;100.00;100052.47;5092850;28;20052;-58
2023/10/22 05:09:36;;;;;;;0.20;0.20;;;;;;;9.68;100.00;100054.13;5093836;28;20113;-58
2023/10/22 05:12:02;;;;;;;0.30;0.30;;;;;;;9.62;100.00;100056.56;5093687;28;20054;-58
2023/10/22 05:14:29;;;;;;;0.20;0.20;;;;;;;9.59;100.00;100069.38;5092621;28;20035;-58
2023/10/22 05:16:55;;;;;;;0.30;0.30;;;;;;;9.53;100.00;100065.84;5093609;28;20182;-58
2023/10/22 05:19:20;;;;;;;0.20;0.20;;;;;;;9.51;100.00;100074.34;5093056;28;20028;-58
2023/10/22 05:21:45;;;;;;;0.20;0.20;;;;;;;9.45;100.00;100074.22;5092852;28;20471;-58
2023/10/22 05:24:10;;;;;;;0.20;0.20;;;;;;;9.41;100.00;100078.41;5093085;28;20024;-59
2023/10/22 05:26:36;;;;;;;0.13;0.13;;;;;;;9.39;100.00;100082.69;5093169;28;20035;-58
2023/10/22 05:29:01;;;;;;;0.20;0.20;;;;;;;9.38;100.00;100088.66;5092206;28;20032;-58
2023/10/22 05:31:26;;;;;;;0.20;0.20;;;;;;;9.35;100.00;100093.72;5092901;28;20028;-59
2023/10/22 05:33:52;;;;;;;0.10;0.10;;;;;;;9.32;100.00;100094.53;5092641;28;20028;-58
2023/10/22 05:36:19;;;;;;;0.20;0.20;;;;;;;9.30;100.00;100103.03;5093115;28;20020;-58
2023/10/22 05:38:45;;;;;;;0.20;0.20;;;;;;;9.26;100.00;100104.66;5093377;28;20020;-58
2023/10/22 05:41:37;;;;;;;0.20;0.20;;;;;;;9.26;100.00;100111.50;5092004;28;20044;-58
2023/10/22 05:44:03;;;;;;;0.20;0.20;;;;;;;9.11;100.00;100110.31;5090152;28;20036;-58
2023/10/22 05:46:33;;;;;;;0.20;0.20;;;;;;;9.13;100.00;100118.94;5092850;28;20054;-58
2023/10/22 05:48:59;;;;;;;0.20;0.20;;;;;;;9.11;100.00;100112.03;5092615;28;20024;-58
2023/10/22 05:51:25;;;;;;;0.20;0.20;;;;;;;9.07;100.00;100113.66;5092900;28;20043;-58
2023/10/22 05:53:50;;;;;;;0.20;0.20;;;;;;;9.07;100.00;100126.50;5092885;28;20464;-58
2023/10/22 05:56:16;;;;;;;0.20;0.20;;;;;;;9.04;100.00;100126.44;5091887;28;20467;-59
2023/10/22 05:58:42;;;;;;;0.20;0.20;;;;;;;9.05;100.00;100125.59;5092883;28;20024;-58
2023/10/22 06:01:09;;;;;;;0.30;0.30;;;;;;;9.02;100.00;100136.66;5092794;28;20048;-58
2023/10/22 06:03:34;;;;;;;0.20;0.20;;;;;;;9.04;100.00;100141.88;5091854;28;20532;-58
2023/10/22 06:05:59;;;;;;;0.20;0.20;;;;;;;9.03;100.00;100145.25;5092791;28;20024;-58
2023/10/22 06:08:25;;;;;;;0.20;0.20;;;;;;;9.01;100.00;100149.47;5092662;28;20032;-58
2023/10/22 06:10:51;;;;;;;0.20;0.20;;;;;;;8.93;100.00;100154.44;5092306;28;20028;-58
2023/10/22 06:13:16;;;;;;;0.20;0.20;;;;;;;8.95;100.00;100154.47;5092570;28;20016;-58
2023/10/22 06:15:43;;;;;;;0.20;0.20;;;;;;;8.94;100.00;100157.88;5092779;28;20472;-58
2023/10/22 06:18:09;;;;;;;0.20;0.20;;;;;;;8.93;100.00;100166.41;5092136;28;20380;-58
2023/10/22 06:20:35;;;;;;;0.28;0.28;;;;;;;8.97;100.00;100168.22;5092796;28;20270;-58
2023/10/22 06:23:02;;;;;;;0.20;0.20;;;;;;;8.99;100.00;100179.44;5092858;28;20031;-58
2023/10/22 06:25:28;;;;;;;0.20;0.20;;;;;;;9.00;100.00;100183.72;5092003;28;20063;-58
2023/10/22 06:27:57;;;;;;;0.20;0.20;;;;;;;9.02;100.00;100187.22;5092627;28;20047;-58
2023/10/22 06:30:23;;;;;;;0.20;0.20;;;;;;;9.05;100.00;100201.00;5091729;28;20016;-58
2023/10/22 06:32:51;;;;;;;0.30;0.30;;;;;;;9.08;100.00;100197.66;5092867;28;20055;-58
2023/10/22 06:35:16;;;;;;;0.20;0.20;;;;;;;9.12;100.00;100203.75;5092354;28;20428;-58
2023/10/22 06:37:42;;;;;;;0.20;0.20;;;;;;;9.16;100.00;100201.28;5092024;28;20059;-58
2023/10/22 06:40:08;;;;;;;0.28;0.28;;;;;;;9.18;100.00;100209.91;5111749;28;20042;-58
2023/10/22 06:42:33;;;;;;;0.20;0.20;;;;;;;9.21;100.00;100220.25;5116470;28;20023;-58
2023/10/22 06:44:59;;;;;;;0.20;0.20;;;;;;;9.25;100.00;100228.06;5116311;28;20050;-58
2023/10/22 06:47:24;;;;;;;0.20;0.20;;;;;;;9.27;100.00;100228.94;5116632;28;20096;-58
2023/10/22 06:49:50;;;;;;;0.20;0.20;;;;;;;9.31;100.00;100231.66;5116888;28;20015;-58
2023/10/22 06:52:15;;;;;;;0.20;0.20;;;;;;;9.33;100.00;100227.41;5115546;28;20088;-58
2023/10/22 06:54:40;;;;;;;0.20;0.20;;;;;;;9.38;100.00;100235.25;5116548;28;20028;-58
2023/10/22 06:57:06;;;;;;;0.28;0.28;;;;;;;9.40;100.00;100228.44;5116402;28;20020;-58
2023/10/22 06:59:31;;;;;;;0.30;0.30;;;;;;;9.42;100.00;100244.75;5115762;28;20023;-58
2023/10/22 07:01:56;;;;;;;0.20;0.20;;;;;;;9.44;100.00;100250.81;5116534;28;20486;-58
2023/10/22 07:04:22;;;;;;;0.20;0.20;;;;;;;9.46;100.00;100258.56;5116272;28;20375;-58
2023/10/22 07:06:47;;;;;;;0.20;0.20;;;;;;;9.44;100.00;100266.25;5115767;28;20016;-58
2023/10/22 07:09:12;;;;;;;0.20;0.20;;;;;;;9.46;100.00;100272.28;5115946;28;20019;-58
2023/10/22 07:11:38;;;;;;;0.20;0.20;;;;;;;9.42;100.00;100270.47;5116139;28;20028;-57
2023/10/22 07:14:04;;;;;;;0.20;0.20;;;;;;;9.42;100.00;100267.91;5115507;28;20020;-58
2023/10/22 07:16:30;;;;;;;0.20;0.20;;;;;;;9.43;100.00;100277.38;5116048;28;20047;-58
2023/10/22 07:18:55;;;;;;;0.20;0.20;;;;;;;9.41;100.00;100279.03;5116242;28;20051;-58
2023/10/22 07:21:21;;;;;;;0.20;0.20;;;;;;;9.42;100.00;100280.78;5114822;28;20459;-58
2023/10/22 07:23:46;;;;;;;0.20;0.20;;;;;;;9.43;100.00;100292.81;5116102;28;20031;-58
2023/10/22 07:26:11;;;;;;;0.20;0.20;;;;;;;9.43;100.00;100292.81;5115580;28;20016;-58
2023/10/22 07:28:41;;;;;;;0.20;0.20;;;;;;;9.43;100.00;100297.09;5115397;28;20032;-58
2023/10/22 07:31:06;;;;;;;0.30;0.30;;;;;;;9.42;100.00;100306.50;5116111;28;20030;-58
2023/10/22 07:33:32;;;;;;;0.20;0.20;;;;;;;9.47;100.00;100320.34;5115070;28;20020;-58
2023/10/22 07:36:04;;;;;;;0.20;0.20;;;;;;;9.48;100.00;100316.94;5115976;28;20117;-58
2023/10/22 07:38:31;;;;;;;0.20;0.20;;;;;;;9.58;100.00;100327.47;5115518;28;20036;-57
2023/10/22 07:40:57;;;;;;;0.20;0.20;;;;;;;9.74;100.00;100328.72;5114666;28;20560;-58
2023/10/22 07:43:24;;;;;;;0.20;0.20;;;;;;;9.87;100.00;100326.47;5115245;28;20028;-58
2023/10/22 07:45:49;;;;;;;0.20;0.20;;;;;;;10.01;100.00;100333.66;5115555;28;20027;-58
2023/10/22 07:48:14;;;;;;;0.30;0.30;;;;;;;10.18;100.00;100336.63;5114677;28;20019;-58
2023/10/22 07:50:40;;;;;;;0.20;0.20;;;;;;;10.43;100.00;100335.53;5115242;28;20084;-58
2023/10/22 07:53:05;;;;;;;0.20;0.20;;;;;;;10.67;100.00;100336.88;5115483;28;20391;-58
2023/10/22 07:55:30;;;;;;;0.20;0.20;;;;;;;10.84;100.00;100337.22;5114280;28;20020;-59
2023/10/22 07:57:56;;;;;;;0.20;0.20;;;;;;;10.98;100.00;100335.78;5115529;28;20486;-59
2023/10/22 08:00:21;;;;;;;0.20;0.20;;;;;;;11.11;100.00;100349.78;5115101;28;20072;-58
2023/10/22 08:02:46;;;;;;;0.20;0.20;;;;;;;11.19;100.00;100344.75;5114530;28;20031;-59
2023/10/22 08:05:11;;;;;;;0.20;0.20;;;;;;;11.28;100.00;100349.22;5114952;28;20482;-59
2023/10/22 08:07:37;;;;;;;0.20;0.20;;;;;;;11.30;100.00;100344.97;5115073;28;20084;-58
2023/10/22 08:10:02;;;;;;;0.20;0.20;;;;;;;11.31;100.00;100363.06;5114406;28;20038;-59
2023/10/22 08:12:28;;;;;;;0.20;0.20;;;;;;;11.31;100.00;100359.59;5114705;28;20020;-58
2023/10/22 08:14:53;;;;;;;0.20;0.20;;;;;;;11.34;100.00;100367.41;5115260;28;20023;-58
2023/10/22 08:17:18;;;;;;;0.20;0.20;;;;;;;11.36;100.00;100365.72;5114138;28;20024;-58
2023/10/22 08:19:44;;;;;;;0.20;0.20;;;;;;;11.39;100.00;100373.53;5114945;28;20431;-58
2023/10/22 08:22:09;;;;;;;0.20;0.20;;;;;;;11.42;100.00;100364.97;5114923;28;20478;-59
2023/10/22 08:24:34;;;;;;;0.20;0.20;;;;;;;11.49;100.00;100374.53;5113924;28;20074;-59
2023/10/22 08:27:00;;;;;;;0.20;0.20;;;;;;;11.56;100.00;100372.97;5114792;28;20023;-59
2023/10/22 08:29:26;;;;;;;0.20;0.20;;;;;;;11.57;100.00;100373.00;5114666;28;20100;-59
2023/10/22 08:31:51;;;;;;;0.20;0.20;;;;;;;11.76;100.00;100381.06;5114114;28;20067;-59
2023/10/22 08:34:16;;;;;;;0.20;0.20;;;;;;;11.72;100.00;100384.44;5114435;28;20092;-59
2023/10/22 08:36:42;;;;;;;0.20;0.20;;;;;;;11.68;100.00;100389.53;5114030;28;20379;-59
2023/10/22 08:39:08;;;;;;;0.20;0.20;;;;;;;11.75;100.00;100397.38;5114384;28;20019;-59
2023/10/22 08:41:39;;;;;;;0.20;0.20;;;;;;;11.71;100.00;100393.91;5114017;28;20130;-59
2023/10/22 08:44:05;;;;;;;0.20;0.20;;;;;;;11.78;100.00;100400.88;5113675;28;20588;-59
2023/10/22 08:46:34;;;;;;;0.20;0.20;;;;;;;11.86;100.00;100401.91;5114061;28;20110;-59
2023/10/22 08:49:04;;;;;;;0.13;0.13;;;;;;;11.90;100.00;100405.38;5114259;28;20019;-59
2023/10/22 08:51:30;;;;;;;0.20;0.20;;;;;;;11.94;100.00;100408.91;5113327;28;20118;-59
2023/10/22 08:53:55;;;;;;;0.10;0.10;;;;;;;11.89;100.00;100413.13;5114308;28;20115;-59
2023/10/22 08:56:21;;;;;;;0.20;0.20;;;;;;;11.93;100.00;100410.63;5114145;28;20019;-59
2023/10/22 08:58:46;;;;;;;0.20;0.20;;;;;;;11.94;100.00;100421.81;5113552;28;20027;-59
2023/10/22 09:01:12;;;;;;;0.20;0.20;;;;;;;11.97;100.00;100422.78;5113809;28;20106;-59
2023/10/22 09:03:37;;;;;;;0.20;0.20;;;;;;;11.98;100.00;100421.03;5113150;28;20463;-58
2023/10/22 09:06:05;;;;;;;0.20;0.20;;;;;;;12.04;100.00;100428.91;5113354;28;20039;-59
2023/10/22 09:08:42;;;;;;;0.20;0.20;;;;;;;12.07;100.00;100428.97;5113724;28;20020;-59
2023/10/22 09:11:18;;;;;;;0.20;0.20;;;;;;;12.19;100.00;100434.31;5114000;28;20467;-59
2023/10/22 09:13:44;;;;;;;0.20;0.20;;;;;;;12.19;100.00;100434.31;5113395;28;20031;-59
2023/10/22 09:16:10;;;;;;;0.10;0.10;;;;;;;12.28;100.00;100436.19;5113680;28;20047;-59
2023/10/22 09:18:43;;;;;;;0.20;0.20;;;;;;;12.54;100.00;100440.00;5114004;28;20051;-58
2023/10/22 09:21:09;;;;;;;0.10;0.10;;;;;;;12.77;100.00;100441.22;5113232;28;20030;-59
2023/10/22 09:23:34;;;;;;;0.13;0.13;;;;;;;12.72;100.00;100435.13;5113447;28;20020;-59
2023/10/22 09:26:00;;;;;;;0.10;0.10;;;;;;;12.76;100.00;100449.81;5113061;28;20024;-59
2023/10/22 09:28:29;;;;;;;0.10;0.10;;;;;;;12.65;100.00;100444.50;5113599;28;20028;-59
2023/10/22 09:31:03;;;;;;;0.10;0.10;;;;;;;12.61;100.00;100459.94;5113808;28;20023;-59
2023/10/22 09:33:39;;;;;;;0.10;0.10;;;;;;;12.72;100.00;100463.56;5112518;28;20375;-58
2023/10/22 09:36:10;;;;;;;0.20;0.20;;;;;;;12.76;100.00;100462.75;5113668;28;20027;-59
2023/10/22 09:38:46;;;;;;;0.20;0.20;;;;;;;12.67;100.00;100465.22;5113782;28;20462;-58
2023/10/22 09:41:23;;;;;;;0.10;0.10;;;;;;;12.61;100.00;100478.91;5112192;28;20540;-59
2023/10/22 09:43:52;;;;;;;0.20;0.20;;;;;;;12.48;100.00;100477.84;5113428;28;20024;-59
2023/10/22 09:46:23;;;;;;;0.20;0.20;;;;;;;12.47;100.00;100476.13;5113314;28;20058;-58
2023/10/22 09:48:49;;;;;;;0.10;0.10;;;;;;;12.41;100.00;100488.06;5112914;28;20034;-59
2023/10/22 09:51:16;;;;;;;0.10;0.10;;;;;;;12.34;100.00;100487.09;5113190;28;20032;-58
2023/10/22 09:53:51;;;;;;;0.20;0.20;;;;;;;12.43;100.00;100500.16;5113404;28;20103;-59
2023/10/22 09:56:19;;;;;;;0.10;0.10;;;;;;;12.36;100.00;100498.34;5112531;28;20508;-59
2023/10/22 09:58:48;;;;;;;0.20;0.20;;;;;;;12.46;100.00;100499.34;5113213;28;20363;-59
2023/10/22 10:01:14;;;;;;;0.10;0.10;;;;;;;12.46;100.00;100501.91;5112376;28;20028;-58
2023/10/22 10:03:42;;;;;;;0.20;0.20;;;;;;;12.47;100.00;100507.16;5113145;28;20418;-58
2023/10/22 10:06:08;;;;;;;0.20;0.20;;;;;;;12.58;100.00;100506.44;5113475;28;20035;-58
2023/10/22 10:08:36;;;;;;;0.20;0.20;;;;;;;12.68;100.00;100500.56;5112087;28;20514;-59
2023/10/22 10:11:02;;;;;;;;;;;;;;;12.89;100.00;100499.16;5113600;28;20063;-58
2023/10/22 10:13:28;;;;;;;0.20;0.20;;;;;;;12.99;100.00;100506.19;5113059;28;20363;-59
2023/10/22 10:16:01;;;;;;;0.20;0.20;;;;;;;13.04;100.00;100514.00;5116780;28;20092;-58
2023/10/22 10:18:58;;;;;;;0.20;0.20;;;;;;;12.98;100.00;100509.63;5117173;28;20041;-58
2023/10/22 10:21:39;;;;;;;0.20;0.20;;;;;;;12.97;100.00;100508.75;5117000;28;20107;-58
2023/10/22 10:24:23;;;;;;;0.10;0.10;;;;;;;13.19;100.00;100509.03;5116494;28;20023;-58
2023/10/22 10:26:55;;;;;;;0.10;0.10;;;;;;;13.26;100.00;100516.06;5117178;28;20452;-58
2023/10/22 10:29:22;;;;;;;0.20;0.20;;;;;;;13.14;100.00;100511.59;5116189;28;20432;-58
2023/10/22 10:31:50;;;;;;;0.10;0.10;;;;;;;13.04;100.00;100516.59;5116991;28;20031;-57
2023/10/22 10:34:26;;;;;;;0.10;0.10;;;;;;;12.99;100.00;100516.53;5116546;28;20035;-58
2023/10/22 10:36:52;;;;;;;0.17;0.17;;;;;;;12.96;100.00;100524.25;5116133;28;20372;-57
2023/10/22 10:39:35;;;;;;;0.10;0.10;;;;;;;13.01;100.00;100525.19;5116713;28;20467;-58
2023/10/22 10:42:00;;;;;;;0.15;0.15;;;;;;;12.95;100.00;100535.44;5116775;28;20036;-58
2023/10/22 10:44:29;;;;;;;0.10;0.10;;;;;;;12.92;100.00;100530.22;5115670;28;20111;-58
2023/10/22 10:46:54;;;;;;;0.20;0.20;;;;;;;13.05;100.00;100526.94;5117010;28;20089;-58
2023/10/22 10:50:02;;;;;;;0.20;0.20;;;;;;;13.04;100.00;100529.53;5116578;28;20023;-58
2023/10/22 10:52:32;;;;;;;0.20;0.20;;;;;;;13.07;100.00;100527.88;5115613;28;20079;-58
2023/10/22 10:55:06;;;;;;;0.20;0.20;;;;;;;13.14;100.00;100527.13;5116776;28;20023;-58
2023/10/22 10:57:38;;;;;;;0.13;0.13;;;;;;;13.51;100.00;100531.94;5115686;28;20024;-58
2023/10/22 11:00:05;;;;;;;0.10;0.10;;;;;;;13.56;100.00;100534.59;5116521;28;20043;-58
2023/10/22 11:02:41;;;;;;;0.20;0.20;;;;;;;13.46;100.00;100539.63;5116174;28;20027;-58
2023/10/22 11:05:07;;;;;;;0.10;0.10;;;;;;;13.50;100.00;100541.41;5115570;28;20030;-58
2023/10/22 11:07:33;;;;;;;0.10;0.10;;;;;;;13.47;100.00;100543.09;5115879;28;20363;-58
2023/10/22 11:09:59;;;;;;;0.13;0.13;;;;;;;13.56;100.00;100539.75;5116287;28;20493;-58
2023/10/22 11:12:25;;;;;;;0.10;0.10;;;;;;;13.53;100.00;100544.88;5115399;28;20034;-58
2023/10/22 11:14:57;;;;;;;0.10;0.10;;;;;;;13.53;100.00;100552.66;5116564;28;20024;-58
2023/10/22 11:17:23;;;;;;;0.10;0.10;;;;;;;13.61;100.00;100543.28;5115967;28;20103;-58
2023/10/22 11:19:51;;;;;;;0.20;0.20;;;;;;;13.58;100.00;100556.16;5115375;28;20043;-58
2023/10/22 11:22:17;;;;;;;0.10;0.10;;;;;;;13.68;100.00;100552.84;5115901;28;20110;-58